Time;durP1;ratioP1;P1;durP2;ratioP2;P2;SDS_P1;SDS_P2;PMS_P1;PMS_P2;Temp;Humidity;BMP_temperature;BMP_pressure;BME280_temperature;BME280_humidity;BME280_pressure;Samples;Min_cycle;Max_cycle;Signal;HPM_P1;HPM_P2
2023/02/26 00:02:01;;;;;;;;;11.00;11.00;;;;;;;;117838;1179;24946;-64
2023/02/26 00:04:29;;;;;;;;;11.50;8.50;;;;;;;;117925;1191;25687;-64
2023/02/26 00:06:57;;;;;;;;;10.00;9.00;;;;;;;;117900;1183;25137;-63
2023/02/26 00:09:27;;;;;;;;;13.00;9.50;;;;;;;;117928;1192;24854;-63
2023/02/26 00:11:57;;;;;;;;;14.33;11.33;;;;;;;;117902;1179;25290;-63
2023/02/26 00:14:26;;;;;;;;;11.75;10.00;;;;;;;;117875;1192;24720;-63
2023/02/26 00:17:07;;;;;;;;;18.00;14.67;;;;;;;;117921;1179;25453;-63
2023/02/26 00:19:36;;;;;;;;;7.50;5.50;;;;;;;;117889;1179;25186;-63
2023/02/26 00:22:04;;;;;;;;;14.00;11.25;;;;;;;;117785;1180;24682;-64
2023/02/26 00:24:33;;;;;;;;;10.00;10.00;;;;;;;;117884;1179;25569;-63
2023/02/26 00:27:01;;;;;;;;;13.00;12.33;;;;;;;;117817;1179;25747;-63
2023/02/26 00:29:30;;;;;;;;;11.50;9.25;;;;;;;;117855;1183;25479;-65
2023/02/26 00:31:59;;;;;;;;;10.75;8.25;;;;;;;;117815;1183;24988;-64
2023/02/26 00:34:28;;;;;;;;;14.25;11.75;;;;;;;;117806;1180;24786;-64
2023/02/26 00:37:31;;;;;;;;;11.00;9.75;;;;;;;;117892;1191;25640;-65
2023/02/26 00:40:22;;;;;;;;;12.00;11.75;;;;;;;;117813;1180;25621;-64
2023/02/26 00:42:51;;;;;;;;;13.00;12.33;;;;;;;;117804;1181;25609;-65
2023/02/26 00:45:20;;;;;;;;;13.25;10.25;;;;;;;;117849;1180;24804;-62
2023/02/26 00:48:16;;;;;;;;;10.50;9.00;;;;;;;;117879;1192;24849;-62
2023/02/26 00:51:28;;;;;;;;;12.00;9.00;;;;;;;;117750;1180;24878;-62
2023/02/26 00:54:20;;;;;;;;;11.50;10.00;;;;;;;;117601;1192;25747;-65
2023/02/26 00:56:50;;;;;;;;;13.33;11.67;;;;;;;;117717;1191;25314;-63
2023/02/26 00:59:19;;;;;;;;;13.00;12.00;;;;;;;;117849;1188;25035;-63
2023/02/26 01:01:48;;;;;;;;;15.00;11.25;;;;;;;;117825;1184;25008;-63
2023/02/26 01:04:19;;;;;;;;;13.75;11.75;;;;;;;;117847;1179;25678;-64
2023/02/26 01:06:51;;;;;;;;;12.00;10.33;;;;;;;;117814;1181;25104;-63
2023/02/26 01:09:30;;;;;;;;;13.00;9.67;;;;;;;;117827;1181;25349;-64
2023/02/26 01:12:03;;;;;;;;;13.50;12.50;;;;;;;;117856;1181;24950;-64
2023/02/26 01:14:32;;;;;;;;;11.33;9.67;;;;;;;;117824;1180;24997;-63
2023/02/26 01:17:18;;;;;;;;;11.67;8.67;;;;;;;;117760;1191;25130;-63
2023/02/26 01:19:49;;;;;;;;;10.00;9.33;;;;;;;;117731;1181;24989;-63
2023/02/26 01:22:44;;;;;;;;;14.33;11.00;;;;;;;;117620;1187;25204;-64
2023/02/26 01:25:36;;;;;;;;;11.50;11.00;;;;;;;;117858;1180;24715;-63
2023/02/26 01:28:05;;;;;;;;;11.00;9.00;;;;;;;;117809;1179;25587;-64
2023/02/26 01:30:34;;;;;;;;;12.67;12.00;;;;;;;;117813;1179;25427;-63
2023/02/26 01:33:23;;;;;;;;;11.00;10.50;;;;;;;;117865;1180;25072;-65
2023/02/26 01:36:03;;;;;;;;;13.67;12.00;;;;;;;;117817;1179;24989;-63
2023/02/26 01:38:35;;;;;;;;;11.75;11.00;;;;;;;;117826;1183;24768;-63
2023/02/26 01:41:24;;;;;;;;;10.25;9.75;;;;;;;;117779;1183;25177;-63
2023/02/26 01:44:08;;;;;;;;;13.00;8.67;;;;;;;;117795;1180;25729;-63
2023/02/26 01:47:03;;;;;;;;;14.50;11.75;;;;;;;;117653;1181;25211;-64
2023/02/26 01:49:32;;;;;;;;;11.67;9.00;;;;;;;;117774;1192;25166;-64
2023/02/26 01:52:02;;;;;;;;;12.75;9.75;;;;;;;;117813;1180;25557;-63
2023/02/26 01:54:31;;;;;;;;;14.50;12.00;;;;;;;;117803;1179;24876;-63
2023/02/26 01:57:05;;;;;;;;;13.25;13.00;;;;;;;;117680;1192;25098;-64
2023/02/26 01:59:36;;;;;;;;;10.25;9.50;;;;;;;;117760;1180;25643;-63
2023/02/26 02:02:07;;;;;;;;;10.67;9.67;;;;;;;;117765;1192;25701;-63
2023/02/26 02:04:37;;;;;;;;;9.00;7.67;;;;;;;;117792;1180;24852;-63
2023/02/26 02:07:06;;;;;;;;;14.33;11.00;;;;;;;;117839;1179;25625;-63
2023/02/26 02:09:35;;;;;;;;;11.50;9.00;;;;;;;;117692;1180;25647;-64
2023/02/26 02:12:09;;;;;;;;;13.00;11.00;;;;;;;;117816;1180;25027;-64
2023/02/26 02:14:59;;;;;;;;;11.00;11.00;;;;;;;;117798;1183;24935;-63
2023/02/26 02:17:33;;;;;;;;;11.50;8.00;;;;;;;;117840;1179;25126;-63
2023/02/26 02:20:25;;;;;;;;;12.00;9.33;;;;;;;;117823;1179;25464;-64
2023/02/26 02:23:15;;;;;;;;;13.25;10.50;;;;;;;;117812;1179;25536;-63
2023/02/26 02:26:13;;;;;;;;;14.33;12.00;;;;;;;;117839;1179;25691;-63
2023/02/26 02:29:07;;;;;;;;;15.00;10.00;;;;;;;;117837;1179;25735;-63
2023/02/26 02:32:13;;;;;;;;;11.00;10.67;;;;;;;;117824;1179;25808;-63
2023/02/26 02:34:48;;;;;;;;;10.00;9.00;;;;;;;;117833;1181;25024;-64
2023/02/26 02:37:22;;;;;;;;;8.75;8.75;;;;;;;;117836;1179;24754;-63
2023/02/26 02:40:01;;;;;;;;;9.50;9.00;;;;;;;;117836;1186;24940;-63
2023/02/26 02:42:34;;;;;;;;;8.00;6.33;;;;;;;;117820;1192;25517;-63
2023/02/26 02:45:29;;;;;;;;;10.67;9.33;;;;;;;;117727;1180;25421;-63
2023/02/26 02:48:05;;;;;;;;;13.00;9.67;;;;;;;;117758;1191;25579;-64
2023/02/26 02:50:41;;;;;;;;;7.67;7.67;;;;;;;;117820;1179;25516;-63
2023/02/26 02:53:19;;;;;;;;;10.00;9.67;;;;;;;;117816;1192;25584;-64
2023/02/26 02:55:54;;;;;;;;;9.25;9.25;;;;;;;;117811;1181;25502;-64
2023/02/26 02:58:27;;;;;;;;;10.00;10.00;;;;;;;;117781;1180;24920;-64
2023/02/26 03:01:02;;;;;;;;;9.00;9.00;;;;;;;;117824;1180;24946;-64
2023/02/26 03:03:39;;;;;;;;;10.67;9.00;;;;;;;;117831;1181;25542;-63
2023/02/26 03:06:07;;;;;;;;;10.75;10.75;;;;;;;;117846;1180;25573;-63
2023/02/26 03:08:40;;;;;;;;;11.67;11.67;;;;;;;;117512;1192;25414;-63
2023/02/26 03:11:08;;;;;;;;;13.00;9.25;;;;;;;;117700;1180;25573;-63
2023/02/26 03:13:39;;;;;;;;;11.00;9.67;;;;;;;;117862;1180;25634;-64
2023/02/26 03:16:39;;;;;;;;;13.00;10.25;;;;;;;;117822;1180;24699;-64
2023/02/26 03:19:19;;;;;;;;;11.75;8.50;;;;;;;;117857;1180;25348;-63
2023/02/26 03:21:59;;;;;;;;;9.75;8.50;;;;;;;;117815;1179;25847;-63
2023/02/26 03:24:38;;;;;;;;;11.00;9.50;;;;;;;;117786;1180;25654;-64
2023/02/26 03:27:23;;;;;;;;;11.75;9.00;;;;;;;;117776;1192;25254;-63
2023/02/26 03:30:08;;;;;;;;;12.00;10.00;;;;;;;;117863;1181;25531;-63
2023/02/26 03:32:59;;;;;;;;;11.00;9.00;;;;;;;;117814;1180;25192;-63
2023/02/26 03:35:41;;;;;;;;;13.25;9.25;;;;;;;;117711;1181;25186;-64
2023/02/26 03:38:15;;;;;;;;;14.00;9.00;;;;;;;;117788;1192;25596;-64
2023/02/26 03:40:53;;;;;;;;;11.75;10.50;;;;;;;;117834;1191;25193;-64
2023/02/26 03:43:30;;;;;;;;;10.75;9.00;;;;;;;;117801;1192;24816;-64
2023/02/26 03:46:04;;;;;;;;;13.00;10.25;;;;;;;;117842;1180;25901;-63
2023/02/26 03:48:34;;;;;;;;;8.67;8.33;;;;;;;;117856;1192;25627;-63
2023/02/26 03:51:13;;;;;;;;;14.00;12.50;;;;;;;;117868;1179;25688;-63
2023/02/26 03:53:49;;;;;;;;;14.00;12.00;;;;;;;;117870;1180;25366;-64
2023/02/26 03:56:17;;;;;;;;;14.67;10.67;;;;;;;;117789;1181;24841;-63
2023/02/26 03:58:46;;;;;;;;;9.25;8.50;;;;;;;;117753;1180;25066;-64
2023/02/26 04:01:28;;;;;;;;;9.75;9.75;;;;;;;;117757;1181;25041;-63
2023/02/26 04:04:04;;;;;;;;;10.50;10.00;;;;;;;;117732;1180;25298;-63
2023/02/26 04:06:33;;;;;;;;;11.00;11.00;;;;;;;;117474;1181;24748;-63
2023/02/26 04:09:02;;;;;;;;;14.33;11.67;;;;;;;;117783;1192;25673;-64
2023/02/26 04:11:31;;;;;;;;;9.67;8.33;;;;;;;;117765;1180;25385;-63
2023/02/26 04:14:00;;;;;;;;;12.00;10.00;;;;;;;;117646;1182;25538;-64
2023/02/26 04:16:28;;;;;;;;;12.00;10.25;;;;;;;;117811;1180;26060;-65
2023/02/26 04:18:57;;;;;;;;;10.67;9.33;;;;;;;;117749;1190;24974;-64
2023/02/26 04:21:25;;;;;;;;;11.00;10.75;;;;;;;;117853;1183;25661;-64
2023/02/26 04:23:54;;;;;;;;;12.00;9.25;;;;;;;;117805;1179;25527;-64
2023/02/26 04:26:22;;;;;;;;;12.25;11.25;;;;;;;;117768;1180;25594;-64
2023/02/26 04:28:51;;;;;;;;;5.00;5.00;;;;;;;;117685;1187;25396;-64
2023/02/26 04:31:20;;;;;;;;;9.67;9.67;;;;;;;;117765;1181;25134;-63
2023/02/26 04:33:48;;;;;;;;;11.67;10.00;;;;;;;;117672;1178;25774;-64
2023/02/26 04:36:17;;;;;;;;;10.50;9.50;;;;;;;;117789;1185;25427;-69
2023/02/26 04:38:45;;;;;;;;;9.67;9.33;;;;;;;;117838;1192;24810;-64
2023/02/26 04:41:14;;;;;;;;;14.67;10.67;;;;;;;;117804;1180;25188;-64
2023/02/26 04:43:42;;;;;;;;;9.33;6.33;;;;;;;;117768;1192;25104;-63
2023/02/26 04:46:11;;;;;;;;;9.50;9.00;;;;;;;;117734;1180;25458;-63
2023/02/26 04:48:40;;;;;;;;;9.00;7.75;;;;;;;;117861;1180;25497;-63
2023/02/26 04:51:08;;;;;;;;;9.50;9.50;;;;;;;;117793;1187;25243;-63
2023/02/26 04:53:37;;;;;;;;;11.00;9.00;;;;;;;;117765;1180;25676;-63
2023/02/26 04:56:06;;;;;;;;;7.33;7.33;;;;;;;;117780;1179;25368;-63
2023/02/26 04:58:35;;;;;;;;;15.33;9.33;;;;;;;;117688;1180;25967;-63
2023/02/26 05:01:04;;;;;;;;;7.00;7.00;;;;;;;;117797;1192;25228;-63
2023/02/26 05:03:33;;;;;;;;;12.00;11.00;;;;;;;;117806;1184;24754;-64
2023/02/26 05:06:01;;;;;;;;;11.75;10.75;;;;;;;;117741;1183;25560;-63
2023/02/26 05:08:30;;;;;;;;;10.67;10.00;;;;;;;;117794;1179;24778;-63
2023/02/26 05:10:58;;;;;;;;;9.00;7.00;;;;;;;;117809;1178;25530;-63
2023/02/26 05:13:27;;;;;;;;;10.00;9.00;;;;;;;;117655;1191;25628;-62
2023/02/26 05:15:55;;;;;;;;;11.00;9.75;;;;;;;;117635;1191;25609;-63
2023/02/26 05:18:24;;;;;;;;;11.75;11.00;;;;;;;;117708;1191;25573;-62
2023/02/26 05:20:56;;;;;;;;;12.00;10.33;;;;;;;;117842;1180;25076;-62
2023/02/26 05:23:24;;;;;;;;;11.00;10.00;;;;;;;;117739;1180;25394;-62
2023/02/26 05:25:55;;;;;;;;;6.25;4.75;;;;;;;;117815;1191;25402;-62
2023/02/26 05:28:25;;;;;;;;;11.00;9.00;;;;;;;;117765;1178;25268;-63
2023/02/26 05:30:55;;;;;;;;;14.00;10.00;;;;;;;;117709;1179;25563;-63
2023/02/26 05:33:25;;;;;;;;;10.00;9.67;;;;;;;;117701;1191;24963;-63
2023/02/26 05:35:53;;;;;;;;;9.25;9.25;;;;;;;;117841;1180;25466;-63
2023/02/26 05:38:22;;;;;;;;;11.33;10.67;;;;;;;;117808;1179;25651;-63
2023/02/26 05:40:55;;;;;;;;;10.00;9.25;;;;;;;;117832;1183;25555;-63
2023/02/26 05:43:25;;;;;;;;;11.50;9.00;;;;;;;;117712;1180;25498;-63
2023/02/26 05:45:54;;;;;;;;;9.50;9.50;;;;;;;;117695;1181;25313;-63
2023/02/26 05:48:23;;;;;;;;;12.67;11.33;;;;;;;;117785;1179;24722;-64
2023/02/26 05:50:52;;;;;;;;;10.75;9.00;;;;;;;;117824;1181;24778;-64
2023/02/26 05:53:20;;;;;;;;;9.00;9.00;;;;;;;;117808;1192;25716;-63
2023/02/26 05:55:49;;;;;;;;;9.00;9.00;;;;;;;;117865;1179;25266;-64
2023/02/26 05:58:17;;;;;;;;;12.33;9.67;;;;;;;;117805;1183;25127;-63
2023/02/26 06:00:46;;;;;;;;;7.75;7.75;;;;;;;;117678;1189;24814;-63
2023/02/26 06:03:15;;;;;;;;;11.75;10.00;;;;;;;;117802;1192;25203;-62
2023/02/26 06:05:44;;;;;;;;;11.00;11.00;;;;;;;;117744;1180;25348;-62
2023/02/26 06:08:14;;;;;;;;;10.00;8.75;;;;;;;;117826;1180;25014;-64
2023/02/26 06:10:43;;;;;;;;;11.67;10.33;;;;;;;;117806;1180;25395;-62
2023/02/26 06:13:11;;;;;;;;;11.67;11.00;;;;;;;;117634;1181;25056;-61
2023/02/26 06:15:40;;;;;;;;;10.00;9.67;;;;;;;;117677;1192;24876;-61
2023/02/26 06:18:08;;;;;;;;;12.50;11.00;;;;;;;;117745;1181;25006;-63
2023/02/26 06:20:37;;;;;;;;;9.00;7.50;;;;;;;;117743;1192;25972;-63
2023/02/26 06:23:05;;;;;;;;;10.00;9.50;;;;;;;;117771;1186;25097;-63
2023/02/26 06:25:34;;;;;;;;;11.33;8.33;;;;;;;;117797;1180;26481;-63
2023/02/26 06:28:02;;;;;;;;;10.25;9.25;;;;;;;;117771;1180;24743;-63
2023/02/26 06:30:31;;;;;;;;;14.00;11.00;;;;;;;;117789;1179;25206;-63
2023/02/26 06:33:00;;;;;;;;;11.75;11.75;;;;;;;;117785;1179;25051;-63
2023/02/26 06:35:28;;;;;;;;;8.25;8.25;;;;;;;;117804;1192;24858;-63
2023/02/26 06:37:58;;;;;;;;;13.00;10.33;;;;;;;;117779;1180;25991;-63
2023/02/26 06:40:26;;;;;;;;;12.00;10.00;;;;;;;;117776;1180;25433;-63
2023/02/26 06:42:55;;;;;;;;;10.00;9.00;;;;;;;;117779;1180;24943;-63
2023/02/26 06:45:24;;;;;;;;;12.00;8.25;;;;;;;;117804;1186;24732;-63
2023/02/26 06:47:52;;;;;;;;;13.00;9.67;;;;;;;;117761;1187;24933;-62
2023/02/26 06:50:21;;;;;;;;;12.67;11.67;;;;;;;;117728;1191;25506;-63
2023/02/26 06:52:50;;;;;;;;;15.00;12.50;;;;;;;;117765;1193;25128;-64
2023/02/26 06:55:20;;;;;;;;;10.33;9.00;;;;;;;;117781;1180;25152;-64
2023/02/26 06:57:49;;;;;;;;;11.50;10.50;;;;;;;;117765;1183;25435;-65
2023/02/26 07:00:17;;;;;;;;;12.25;10.50;;;;;;;;117741;1189;25088;-64
2023/02/26 07:02:46;;;;;;;;;13.00;12.00;;;;;;;;117802;1186;24938;-65
2023/02/26 07:05:15;;;;;;;;;13.00;9.33;;;;;;;;117737;1180;25575;-65
2023/02/26 07:07:43;;;;;;;;;20.00;15.25;;;;;;;;117813;1192;25081;-65
2023/02/26 07:10:12;;;;;;;;;14.00;12.00;;;;;;;;117790;1181;25445;-65
2023/02/26 07:12:40;;;;;;;;;18.00;14.33;;;;;;;;117799;1192;25223;-65
2023/02/26 07:15:09;;;;;;;;;14.50;13.75;;;;;;;;117761;1180;26259;-65
2023/02/26 07:17:37;;;;;;;;;14.33;14.00;;;;;;;;117836;1192;25420;-64
2023/02/26 07:20:09;;;;;;;;;15.75;12.00;;;;;;;;117844;1180;24667;-65
2023/02/26 07:22:37;;;;;;;;;14.75;13.50;;;;;;;;117796;1179;25076;-65
2023/02/26 07:25:07;;;;;;;;;16.00;13.00;;;;;;;;117925;1184;25423;-65
2023/02/26 07:27:35;;;;;;;;;18.00;11.25;;;;;;;;117878;1190;24905;-62
2023/02/26 07:30:06;;;;;;;;;14.67;13.00;;;;;;;;117858;1183;25342;-60
2023/02/26 07:32:34;;;;;;;;;15.25;9.25;;;;;;;;117852;1189;25014;-60
2023/02/26 07:35:04;;;;;;;;;12.67;9.67;;;;;;;;117788;1192;25268;-60
2023/02/26 07:37:33;;;;;;;;;11.67;10.00;;;;;;;;117769;1180;25964;-60
2023/02/26 07:40:01;;;;;;;;;12.67;10.33;;;;;;;;117770;1180;25121;-61
2023/02/26 07:42:30;;;;;;;;;17.25;12.50;;;;;;;;117724;1183;25477;-61
2023/02/26 07:44:58;;;;;;;;;11.50;9.75;;;;;;;;117828;1192;25032;-61
2023/02/26 07:47:29;;;;;;;;;13.25;12.75;;;;;;;;117897;1181;25486;-60
2023/02/26 07:49:58;;;;;;;;;16.00;13.33;;;;;;;;117790;1179;24966;-63
2023/02/26 07:52:27;;;;;;;;;16.00;12.00;;;;;;;;117825;1177;25278;-63
2023/02/26 07:54:55;;;;;;;;;10.00;10.00;;;;;;;;117760;1178;25225;-62
2023/02/26 07:57:24;;;;;;;;;11.00;8.25;;;;;;;;117727;1191;25270;-61
2023/02/26 07:59:52;;;;;;;;;15.33;11.00;;;;;;;;117845;1177;24830;-60
2023/02/26 08:02:22;;;;;;;;;8.50;7.25;;;;;;;;117827;1179;25559;-60
2023/02/26 08:04:51;;;;;;;;;13.50;11.00;;;;;;;;117773;1183;25510;-61
2023/02/26 08:07:19;;;;;;;;;10.50;10.50;;;;;;;;117782;1179;25622;-60
2023/02/26 08:09:48;;;;;;;;;13.00;9.67;;;;;;;;117788;1178;25140;-62
2023/02/26 08:12:16;;;;;;;;;10.25;10.00;;;;;;;;117783;1178;25336;-61
2023/02/26 08:14:46;;;;;;;;;11.50;11.25;;;;;;;;117835;1181;25461;-62
2023/02/26 08:17:14;;;;;;;;;12.50;11.50;;;;;;;;117815;1177;25249;-63
2023/02/26 08:19:43;;;;;;;;;8.67;7.00;;;;;;;;117821;1177;25076;-61
2023/02/26 08:22:11;;;;;;;;;10.75;10.75;;;;;;;;117808;1178;24758;-61
2023/02/26 08:24:40;;;;;;;;;12.75;11.50;;;;;;;;117844;1177;26358;-61
2023/02/26 08:27:09;;;;;;;;;14.50;12.00;;;;;;;;117784;1181;25311;-61
2023/02/26 08:29:40;;;;;;;;;14.00;11.50;;;;;;;;117859;1177;24972;-61
2023/02/26 08:32:08;;;;;;;;;9.50;9.50;;;;;;;;117876;1180;24997;-61
2023/02/26 08:34:38;;;;;;;;;12.00;9.50;;;;;;;;117813;1190;25235;-61
2023/02/26 08:37:08;;;;;;;;;13.00;13.00;;;;;;;;117830;1177;25712;-60
2023/02/26 08:39:37;;;;;;;;;12.00;9.50;;;;;;;;117885;1179;25475;-65
2023/02/26 08:42:07;;;;;;;;;10.00;10.00;;;;;;;;117989;1187;25278;-64
2023/02/26 08:44:36;;;;;;;;;17.25;12.75;;;;;;;;117894;1179;24805;-62
2023/02/26 08:47:04;;;;;;;;;15.75;14.00;;;;;;;;117865;1178;25313;-59
2023/02/26 08:49:33;;;;;;;;;12.75;12.75;;;;;;;;117852;1177;25091;-61
2023/02/26 08:52:02;;;;;;;;;13.00;10.75;;;;;;;;117866;1177;24810;-61
2023/02/26 08:54:31;;;;;;;;;11.00;9.00;;;;;;;;117878;1179;25006;-61
2023/02/26 08:56:59;;;;;;;;;13.25;12.50;;;;;;;;117880;1189;25167;-60
2023/02/26 08:59:28;;;;;;;;;19.00;14.67;;;;;;;;117901;1179;25404;-59
2023/02/26 09:01:56;;;;;;;;;16.25;13.25;;;;;;;;117851;1183;24817;-64
2023/02/26 09:04:30;;;;;;;;;12.67;10.00;;;;;;;;117893;1190;24895;-63
2023/02/26 09:06:58;;;;;;;;;17.33;14.33;;;;;;;;117911;1177;25599;-61
2023/02/26 09:09:27;;;;;;;;;18.33;16.00;;;;;;;;117902;1181;25320;-61
2023/02/26 09:11:55;;;;;;;;;28.33;22.00;;;;;;;;117900;1177;25248;-60
2023/02/26 09:14:24;;;;;;;;;19.33;15.67;;;;;;;;117740;1183;25116;-61
2023/02/26 09:16:52;;;;;;;;;19.50;14.75;;;;;;;;117767;1177;24801;-62
2023/02/26 09:19:21;;;;;;;;;20.00;18.75;;;;;;;;119884;1183;25676;-63
2023/02/26 09:21:49;;;;;;;;;14.75;14.25;;;;;;;;119864;1191;24911;-63
2023/02/26 09:24:17;;;;;;;;;26.25;21.00;;;;;;;;119846;1186;25101;-62
2023/02/26 09:26:46;;;;;;;;;16.50;16.00;;;;;;;;119853;1184;25036;-61
2023/02/26 09:29:14;;;;;;;;;26.00;23.67;;;;;;;;119976;1189;25290;-62
2023/02/26 09:31:42;;;;;;;;;27.33;19.67;;;;;;;;119030;1179;25431;-61
2023/02/26 09:34:12;;;;;;;;;26.33;24.00;;;;;;;;117877;1190;25310;-61
2023/02/26 09:36:50;;;;;;;;;27.00;20.33;;;;;;;;117857;1179;25390;-61
2023/02/26 09:39:18;;;;;;;;;26.50;20.75;;;;;;;;117840;1190;25058;-60
2023/02/26 09:41:50;;;;;;;;;26.25;23.00;;;;;;;;117866;1190;25524;-61
2023/02/26 09:44:26;;;;;;;;;22.25;18.00;;;;;;;;117922;1178;25376;-60
2023/02/26 09:47:07;;;;;;;;;23.00;20.33;;;;;;;;117877;1178;25577;-60
2023/02/26 09:49:51;;;;;;;;;23.00;21.00;;;;;;;;117824;1178;24686;-60
2023/02/26 09:52:48;;;;;;;;;25.50;18.75;;;;;;;;117856;1190;25179;-61
2023/02/26 09:55:29;;;;;;;;;27.00;24.00;;;;;;;;117896;1177;25261;-60
2023/02/26 09:58:01;;;;;;;;;30.67;23.33;;;;;;;;117847;1184;24997;-60
2023/02/26 10:00:54;;;;;;;;;24.75;24.00;;;;;;;;117778;1177;25634;-61
2023/02/26 10:03:26;;;;;;;;;26.00;21.50;;;;;;;;117897;1190;25652;-61
2023/02/26 10:06:22;;;;;;;;;28.00;21.75;;;;;;;;117922;1177;25018;-61
2023/02/26 10:08:57;;;;;;;;;30.67;25.67;;;;;;;;117920;1180;25503;-61
2023/02/26 10:11:33;;;;;;;;;22.50;19.50;;;;;;;;117822;1178;24747;-61
2023/02/26 10:14:43;;;;;;;;;26.67;19.00;;;;;;;;117878;1177;25085;-60
2023/02/26 10:17:39;;;;;;;;;26.75;23.50;;;;;;;;117653;1177;24873;-60
2023/02/26 10:20:28;;;;;;;;;29.33;24.33;;;;;;;;117845;1183;25696;-60
2023/02/26 10:23:25;;;;;;;;;30.50;25.25;;;;;;;;117846;1177;25548;-60
2023/02/26 10:26:12;;;;;;;;;30.00;24.00;;;;;;;;117752;1178;25299;-60
2023/02/26 10:29:03;;;;;;;;;21.67;21.67;;;;;;;;117811;1180;25633;-62
2023/02/26 10:32:06;;;;;;;;;30.50;24.50;;;;;;;;117836;1181;25523;-62
2023/02/26 10:34:51;;;;;;;;;28.67;25.00;;;;;;;;117866;1184;25438;-62
2023/02/26 10:37:54;;;;;;;;;32.50;27.00;;;;;;;;117878;1180;25613;-62
2023/02/26 10:41:08;;;;;;;;;30.00;25.00;;;;;;;;117846;1190;24908;-62
2023/02/26 10:43:49;;;;;;;;;33.00;26.33;;;;;;;;117609;1186;24709;-62
2023/02/26 10:46:23;;;;;;;;;25.33;20.67;;;;;;;;117857;1183;24960;-62
2023/02/26 10:48:58;;;;;;;;;32.00;22.33;;;;;;;;117867;1181;24910;-61
2023/02/26 10:51:37;;;;;;;;;25.33;23.00;;;;;;;;117909;1177;25492;-60
2023/02/26 10:54:24;;;;;;;;;31.00;28.00;;;;;;;;117833;1179;24892;-61
2023/02/26 10:56:52;;;;;;;;;25.50;22.75;;;;;;;;117848;1183;25149;-61
2023/02/26 10:59:21;;;;;;;;;24.67;23.00;;;;;;;;117864;1177;25695;-61
2023/02/26 11:01:50;;;;;;;;;27.00;25.00;;;;;;;;117904;1190;24987;-61
2023/02/26 11:04:22;;;;;;;;;24.00;21.50;;;;;;;;117912;1179;25620;-61
2023/02/26 11:06:59;;;;;;;;;28.00;22.00;;;;;;;;117855;1183;25361;-62
2023/02/26 11:09:35;;;;;;;;;29.33;26.00;;;;;;;;117838;1190;25279;-62
2023/02/26 11:12:13;;;;;;;;;24.33;22.67;;;;;;;;117919;1177;25162;-62
2023/02/26 11:14:42;;;;;;;;;31.00;27.00;;;;;;;;117927;1181;24922;-62
2023/02/26 11:17:18;;;;;;;;;35.00;29.00;;;;;;;;117908;1179;25345;-62
2023/02/26 11:19:52;;;;;;;;;34.00;27.50;;;;;;;;117890;1180;25624;-62
2023/02/26 11:22:21;;;;;;;;;31.00;24.33;;;;;;;;117948;1177;25381;-62
2023/02/26 11:24:51;;;;;;;;;30.33;24.00;;;;;;;;117928;1177;25556;-62
2023/02/26 11:27:50;;;;;;;;;24.00;19.67;;;;;;;;117765;1177;25368;-62
2023/02/26 11:30:20;;;;;;;;;32.50;25.00;;;;;;;;117779;1190;25440;-65
2023/02/26 11:32:51;;;;;;;;;28.00;23.33;;;;;;;;117884;1180;25301;-65
2023/02/26 11:35:22;;;;;;;;;27.33;24.00;;;;;;;;117927;1182;25271;-64
2023/02/26 11:37:58;;;;;;;;;27.67;24.33;;;;;;;;117912;1190;24992;-62
2023/02/26 11:40:48;;;;;;;;;27.33;24.00;;;;;;;;117831;1180;25440;-61
2023/02/26 11:43:20;;;;;;;;;35.00;27.00;;;;;;;;117868;1179;25985;-60
2023/02/26 11:45:54;;;;;;;;;28.67;22.67;;;;;;;;117896;1176;24787;-60
2023/02/26 11:48:26;;;;;;;;;18.00;16.50;;;;;;;;117811;1180;25506;-61
2023/02/26 11:51:02;;;;;;;;;31.33;27.33;;;;;;;;117803;1177;25390;-62
2023/02/26 11:53:34;;;;;;;;;30.33;23.00;;;;;;;;117879;1190;25479;-61
2023/02/26 11:56:09;;;;;;;;;34.00;26.00;;;;;;;;117914;1184;25281;-61
2023/02/26 11:58:40;;;;;;;;;29.00;26.00;;;;;;;;117918;1179;25330;-61
2023/02/26 12:01:15;;;;;;;;;30.00;21.00;;;;;;;;117917;1177;25650;-61
2023/02/26 12:03:47;;;;;;;;;33.00;26.50;;;;;;;;117923;1190;25374;-61
2023/02/26 12:06:17;;;;;;;;;27.00;25.50;;;;;;;;117909;1179;25147;-61
2023/02/26 12:08:47;;;;;;;;;24.00;20.00;;;;;;;;117858;1179;26125;-61
2023/02/26 12:11:27;;;;;;;;;31.67;25.67;;;;;;;;117841;1178;25670;-59
2023/02/26 12:14:18;;;;;;;;;27.00;26.00;;;;;;;;117863;1177;25475;-61
2023/02/26 12:17:14;;;;;;;;;25.00;21.50;;;;;;;;117821;1187;24727;-61
2023/02/26 12:20:13;;;;;;;;;29.00;23.67;;;;;;;;117901;1190;25153;-61
2023/02/26 12:22:57;;;;;;;;;19.67;17.67;;;;;;;;117849;1179;24664;-59
2023/02/26 12:25:31;;;;;;;;;28.00;24.00;;;;;;;;117856;1181;25628;-61
2023/02/26 12:28:27;;;;;;;;;30.00;25.33;;;;;;;;117883;1179;24829;-61
2023/02/26 12:31:20;;;;;;;;;24.00;20.50;;;;;;;;117915;1177;24730;-61
2023/02/26 12:34:11;;;;;;;;;26.67;25.00;;;;;;;;117857;1181;24919;-61
2023/02/26 12:37:16;;;;;;;;;36.00;27.00;;;;;;;;117863;1179;25236;-61
2023/02/26 12:40:16;;;;;;;;;33.00;25.00;;;;;;;;117846;1177;25471;-61
2023/02/26 12:43:05;;;;;;;;;26.33;23.33;;;;;;;;117803;1183;24759;-63
2023/02/26 12:45:49;;;;;;;;;25.33;23.67;;;;;;;;117801;1179;25509;-66
2023/02/26 12:48:36;;;;;;;;;23.33;23.33;;;;;;;;117856;1177;24817;-63
2023/02/26 12:51:29;;;;;;;;;26.25;23.25;;;;;;;;117802;1177;24727;-61
2023/02/26 12:54:19;;;;;;;;;27.00;26.00;;;;;;;;119880;1190;25359;-61
2023/02/26 12:57:04;;;;;;;;;29.50;24.00;;;;;;;;117820;1190;25170;-62
2023/02/26 12:59:33;;;;;;;;;26.67;25.67;;;;;;;;117854;1177;25653;-62
2023/02/26 13:02:35;;;;;;;;;32.00;26.00;;;;;;;;117865;1190;25557;-60
2023/02/26 13:05:24;;;;;;;;;31.50;28.00;;;;;;;;117883;1177;25183;-61
2023/02/26 13:08:05;;;;;;;;;34.50;28.50;;;;;;;;117912;1177;24911;-61
2023/02/26 13:11:11;;;;;;;;;31.00;26.00;;;;;;;;117902;1187;25644;-61
2023/02/26 13:13:47;;;;;;;;;29.00;21.00;;;;;;;;117908;1177;24724;-61
2023/02/26 13:16:31;;;;;;;;;27.00;22.00;;;;;;;;117853;1183;25350;-61
2023/02/26 13:19:14;;;;;;;;;32.33;28.00;;;;;;;;117900;1190;25025;-61
2023/02/26 13:21:47;;;;;;;;;30.67;25.00;;;;;;;;117878;1187;25052;-60
2023/02/26 13:24:23;;;;;;;;;24.00;17.00;;;;;;;;117885;1177;25125;-61
2023/02/26 13:26:53;;;;;;;;;25.33;22.33;;;;;;;;117844;1190;25438;-61
2023/02/26 13:29:54;;;;;;;;;30.67;25.33;;;;;;;;117847;1179;25422;-61
2023/02/26 13:32:25;;;;;;;;;26.00;25.00;;;;;;;;117935;1177;25477;-61
2023/02/26 13:35:00;;;;;;;;;30.50;25.50;;;;;;;;117827;1190;25224;-60
2023/02/26 13:37:41;;;;;;;;;31.00;28.00;;;;;;;;117900;1180;25645;-60
2023/02/26 13:40:13;;;;;;;;;30.00;29.00;;;;;;;;117902;1190;25157;-60
2023/02/26 13:42:59;;;;;;;;;28.50;27.00;;;;;;;;117861;1184;24869;-60
2023/02/26 13:46:03;;;;;;;;;28.00;22.00;;;;;;;;117881;1187;24749;-60
2023/02/26 13:48:39;;;;;;;;;30.00;25.00;;;;;;;;117857;1192;24827;-60
2023/02/26 13:51:39;;;;;;;;;26.00;22.50;;;;;;;;117850;1190;25092;-61
2023/02/26 13:54:10;;;;;;;;;25.00;21.00;;;;;;;;117839;1190;24927;-60
2023/02/26 13:56:39;;;;;;;;;30.00;25.67;;;;;;;;117870;1190;25740;-60
2023/02/26 13:59:13;;;;;;;;;34.00;27.33;;;;;;;;117859;1177;25091;-60
2023/02/26 14:02:18;;;;;;;;;27.33;26.67;;;;;;;;117875;1177;25711;-60
2023/02/26 14:04:53;;;;;;;;;28.67;24.00;;;;;;;;117858;1177;24870;-60
2023/02/26 14:07:49;;;;;;;;;22.00;19.00;;;;;;;;117895;1180;25010;-60
2023/02/26 14:10:46;;;;;;;;;29.00;26.33;;;;;;;;117847;1180;25084;-61
2023/02/26 14:13:23;;;;;;;;;27.33;22.67;;;;;;;;117876;1177;24959;-61
2023/02/26 14:16:09;;;;;;;;;27.00;25.00;;;;;;;;117914;1179;25607;-61
2023/02/26 14:18:47;;;;;;;;;31.67;24.00;;;;;;;;117888;1180;24859;-61
2023/02/26 14:21:37;;;;;;;;;25.00;20.50;;;;;;;;117821;1177;25334;-61
2023/02/26 14:24:35;;;;;;;;;26.33;25.00;;;;;;;;117932;1190;25436;-60
2023/02/26 14:31:25;;;;;;;;;28.00;24.00;;;;;;;;118586;1177;25358;-65
2023/02/26 14:34:13;;;;;;;;;32.50;28.00;;;;;;;;117802;1191;25289;-64
2023/02/26 14:36:52;;;;;;;;;30.50;24.00;;;;;;;;117820;1180;25106;-64
2023/02/26 14:39:40;;;;;;;;;33.67;25.00;;;;;;;;117486;1190;25473;-64
2023/02/26 14:42:31;;;;;;;;;26.50;24.50;;;;;;;;117514;1182;25311;-64
2023/02/26 14:45:22;;;;;;;;;29.00;23.50;;;;;;;;117837;1180;25671;-64
2023/02/26 14:47:51;;;;;;;;;21.33;18.33;;;;;;;;117824;1180;25031;-64
2023/02/26 14:50:21;;;;;;;;;26.00;22.00;;;;;;;;117737;1192;26224;-64
2023/02/26 14:53:07;;;;;;;;;25.00;23.33;;;;;;;;117897;1192;25063;-63
2023/02/26 14:55:56;;;;;;;;;26.00;25.50;;;;;;;;117820;1183;24809;-64
2023/02/26 14:59:03;;;;;;;;;24.50;22.50;;;;;;;;117572;1180;25427;-64
2023/02/26 15:01:34;;;;;;;;;26.00;23.50;;;;;;;;117437;1187;25338;-64
2023/02/26 15:04:33;;;;;;;;;28.00;23.00;;;;;;;;117670;1192;24855;-64